Time;durP1;ratioP1;P1;durP2;ratioP2;P2;SDS_P1;SDS_P2;PMS_P1;PMS_P2;Temp;Humidity;BMP_temperature;BMP_pressure;BME280_temperature;BME280_humidity;BME280_pressure;Samples;Min_cycle;Max_cycle;Signal;HPM_P1;HPM_P2
2024/01/14 00:01:53;;;;;;;51.58;28.95;;;;;;;;;;5113637;28;20059;-57
2024/01/14 00:04:20;;;;;;;49.45;26.17;;;;;;;;;;5113724;28;20058;-58
2024/01/14 00:06:46;;;;;;;46.78;25.35;;;;;;;;;;5113820;28;20048;-57
2024/01/14 00:09:15;;;;;;;45.97;25.52;;;;;;;;;;5113644;28;20159;-57
2024/01/14 00:11:41;;;;;;;48.70;25.48;;;;;;;;;;5113363;28;20062;-57
2024/01/14 00:14:09;;;;;;;46.42;25.88;;;;;;;;;;5113359;28;20048;-57
2024/01/14 00:16:35;;;;;;;42.75;23.60;;;;;;;;;;5113331;28;20055;-57
2024/01/14 00:19:03;;;;;;;51.08;26.40;;;;;;;;;;5113543;28;20062;-57
2024/01/14 00:21:30;;;;;;;40.78;22.95;;;;;;;;;;5112954;28;20050;-55
2024/01/14 00:23:57;;;;;;;41.65;24.40;;;;;;;;;;5113055;28;20047;-56
2024/01/14 00:26:27;;;;;;;45.30;24.67;;;;;;;;;;5113483;28;20055;-57
2024/01/14 00:28:54;;;;;;;44.58;25.40;;;;;;;;;;5113453;28;20051;-56
2024/01/14 00:31:21;;;;;;;44.65;24.30;;;;;;;;;;5113230;28;20058;-56
2024/01/14 00:33:49;;;;;;;44.45;23.63;;;;;;;;;;5112948;28;20062;-56
2024/01/14 00:36:16;;;;;;;47.40;25.13;;;;;;;;;;5112953;28;20063;-56
2024/01/14 00:38:43;;;;;;;40.25;23.75;;;;;;;;;;5113263;28;20051;-56
2024/01/14 00:41:10;;;;;;;43.45;24.77;;;;;;;;;;5112663;28;20408;-54
2024/01/14 00:43:38;;;;;;;41.00;23.13;;;;;;;;;;5112669;28;20055;-56
2024/01/14 00:46:05;;;;;;;40.28;22.00;;;;;;;;;;5113086;28;20067;-56
2024/01/14 00:48:32;;;;;;;41.75;23.77;;;;;;;;;;5112752;28;20051;-56
2024/01/14 00:50:58;;;;;;;42.55;23.42;;;;;;;;;;5112889;28;20050;-57
2024/01/14 00:53:25;;;;;;;43.83;25.15;;;;;;;;;;5112745;28;20385;-56
2024/01/14 00:55:52;;;;;;;40.75;23.90;;;;;;;;;;5112620;28;20059;-57
2024/01/14 00:58:19;;;;;;;41.20;23.55;;;;;;;;;;5112963;28;20125;-57
2024/01/14 01:00:47;;;;;;;40.95;23.00;;;;;;;;;;5112577;28;20048;-57
2024/01/14 01:03:14;;;;;;;40.67;22.80;;;;;;;;;;5113072;28;20063;-56
2024/01/14 01:05:41;;;;;;;43.47;22.90;;;;;;;;;;5113113;28;20404;-57
2024/01/14 01:08:07;;;;;;;42.08;22.23;;;;;;;;;;5112608;28;20078;-56
2024/01/14 01:10:34;;;;;;;43.00;21.27;;;;;;;;;;5110485;28;20051;-55
2024/01/14 01:13:02;;;;;;;36.25;21.38;;;;;;;;;;5094638;28;20485;-56
2024/01/14 01:15:28;;;;;;;35.03;19.73;;;;;;;;;;5092173;28;20059;-56
2024/01/14 01:17:56;;;;;;;34.80;19.80;;;;;;;;;;5092363;28;20059;-57
2024/01/14 01:20:23;;;;;;;41.63;22.95;;;;;;;;;;5092228;28;20055;-57
2024/01/14 01:22:51;;;;;;;36.70;20.17;;;;;;;;;;5091886;28;20558;-57
2024/01/14 01:25:17;;;;;;;36.70;20.55;;;;;;;;;;5092570;28;20052;-57
2024/01/14 01:27:44;;;;;;;36.15;20.10;;;;;;;;;;5091953;28;20052;-57
2024/01/14 01:30:11;;;;;;;36.58;20.88;;;;;;;;;;5105672;28;20351;-56
2024/01/14 01:32:38;;;;;;;36.75;20.27;;;;;;;;;;5112638;28;20413;-57
2024/01/14 01:35:07;;;;;;;34.22;20.05;;;;;;;;;;5112734;28;20503;-56
2024/01/14 01:37:34;;;;;;;35.72;19.85;;;;;;;;;;5112699;28;20056;-57
2024/01/14 01:40:01;;;;;;;36.55;20.55;;;;;;;;;;5112724;28;20059;-57
2024/01/14 01:42:27;;;;;;;36.67;20.27;;;;;;;;;;5112565;28;20070;-56
2024/01/14 01:44:54;;;;;;;40.50;22.40;;;;;;;;;;5112742;28;20397;-55
2024/01/14 01:47:21;;;;;;;37.65;20.63;;;;;;;;;;5112528;28;20060;-57
2024/01/14 01:49:49;;;;;;;38.88;20.70;;;;;;;;;;5112385;28;20512;-56
2024/01/14 01:52:18;;;;;;;37.17;19.98;;;;;;;;;;5112212;28;20059;-56
2024/01/14 01:54:45;;;;;;;35.92;20.55;;;;;;;;;;5072295;28;20059;-56
2024/01/14 01:57:13;;;;;;;43.17;21.80;;;;;;;;;;5075623;28;20049;-56
2024/01/14 01:59:40;;;;;;;37.13;20.80;;;;;;;;;;5076071;28;20505;-56
2024/01/14 02:02:07;;;;;;;33.75;19.65;;;;;;;;;;5075465;28;20053;-56
2024/01/14 02:04:34;;;;;;;34.45;19.75;;;;;;;;;;5075853;28;20059;-56
2024/01/14 02:07:01;;;;;;;34.10;19.73;;;;;;;;;;5075430;28;20056;-56
2024/01/14 02:09:29;;;;;;;36.47;19.85;;;;;;;;;;5075932;28;20064;-56
2024/01/14 02:11:56;;;;;;;34.53;20.73;;;;;;;;;;5075674;28;20485;-56
2024/01/14 02:14:23;;;;;;;33.78;20.77;;;;;;;;;;5075776;28;20052;-56
2024/01/14 02:16:50;;;;;;;34.75;20.40;;;;;;;;;;5075236;28;20079;-57
2024/01/14 02:19:17;;;;;;;30.80;18.52;;;;;;;;;;5075074;28;20387;-57
2024/01/14 02:21:45;;;;;;;30.73;18.42;;;;;;;;;;5075213;28;20051;-57
2024/01/14 02:24:18;;;;;;;30.70;18.48;;;;;;;;;;5075426;28;20075;-56
2024/01/14 02:26:45;;;;;;;32.53;19.80;;;;;;;;;;5075264;28;20067;-56
2024/01/14 02:29:12;;;;;;;27.50;16.70;;;;;;;;;;5075372;28;20048;-56
2024/01/14 02:31:39;;;;;;;32.65;19.73;;;;;;;;;;5075116;28;20044;-56
2024/01/14 02:34:07;;;;;;;29.75;17.38;;;;;;;;;;5075466;28;20045;-56
2024/01/14 02:36:33;;;;;;;28.58;17.38;;;;;;;;;;5074967;28;20049;-56
2024/01/14 02:39:00;;;;;;;26.20;16.13;;;;;;;;;;5075353;28;20063;-54
2024/01/14 02:41:28;;;;;;;30.02;16.50;;;;;;;;;;5074867;28;20081;-56
2024/01/14 02:43:55;;;;;;;28.77;17.80;;;;;;;;;;5075034;28;20060;-56
2024/01/14 02:46:22;;;;;;;26.55;17.17;;;;;;;;;;5074829;28;20059;-54
2024/01/14 02:48:49;;;;;;;26.15;15.52;;;;;;;;;;5074998;28;20063;-56
2024/01/14 02:51:15;;;;;;;28.27;17.52;;;;;;;;;;5074976;28;20049;-56
2024/01/14 02:53:42;;;;;;;24.75;16.27;;;;;;;;;;5098270;28;20060;-56
2024/01/14 02:56:09;;;;;;;30.02;17.58;;;;;;;;;;5115076;28;20400;-56
2024/01/14 02:58:38;;;;;;;24.95;16.17;;;;;;;;;;5100284;28;20059;-55
2024/01/14 03:01:05;;;;;;;29.90;17.42;;;;;;;;;;5113919;28;20058;-55
2024/01/14 03:03:32;;;;;;;26.50;15.73;;;;;;;;;;5114917;28;20481;-55
2024/01/14 03:05:58;;;;;;;25.95;16.65;;;;;;;;;;5114872;28;20401;-56
2024/01/14 03:08:25;;;;;;;29.35;17.45;;;;;;;;;;5114479;28;20051;-56
2024/01/14 03:10:52;;;;;;;23.33;15.25;;;;;;;;;;5114477;28;20059;-55
2024/01/14 03:13:19;;;;;;;30.13;17.98;;;;;;;;;;5114631;28;20051;-56
2024/01/14 03:15:47;;;;;;;26.10;15.85;;;;;;;;;;5114817;28;20381;-56
2024/01/14 03:18:15;;;;;;;24.13;14.35;;;;;;;;;;5114331;28;20048;-56
2024/01/14 03:20:42;;;;;;;26.20;15.32;;;;;;;;;;5114553;28;20066;-56
2024/01/14 03:23:09;;;;;;;22.08;14.45;;;;;;;;;;5114429;28;20051;-57
2024/01/14 03:25:36;;;;;;;25.30;15.40;;;;;;;;;;5114540;28;20048;-56
2024/01/14 03:28:03;;;;;;;22.83;14.07;;;;;;;;;;5114441;28;20051;-56
2024/01/14 03:30:30;;;;;;;24.13;14.35;;;;;;;;;;5113963;28;20062;-56
2024/01/14 03:32:58;;;;;;;19.20;12.15;;;;;;;;;;5114312;28;20043;-56
2024/01/14 03:35:25;;;;;;;22.30;13.20;;;;;;;;;;5114544;28;20059;-56
2024/01/14 03:37:52;;;;;;;21.58;13.45;;;;;;;;;;5113853;28;20055;-56
2024/01/14 03:40:19;;;;;;;24.42;14.25;;;;;;;;;;5113929;28;20060;-55
2024/01/14 03:42:45;;;;;;;21.63;13.50;;;;;;;;;;5113987;28;20069;-56
2024/01/14 03:45:12;;;;;;;23.02;14.90;;;;;;;;;;5114118;28;20055;-54
2024/01/14 03:47:39;;;;;;;20.55;12.70;;;;;;;;;;5114043;28;20509;-56
2024/01/14 03:50:07;;;;;;;21.20;13.27;;;;;;;;;;5114138;28;20047;-55
2024/01/14 03:52:34;;;;;;;23.20;14.05;;;;;;;;;;5113514;28;20046;-56
2024/01/14 03:55:01;;;;;;;21.58;13.85;;;;;;;;;;5113645;28;20056;-55
2024/01/14 03:57:28;;;;;;;24.08;14.75;;;;;;;;;;5113863;28;20055;-55
2024/01/14 03:59:54;;;;;;;21.83;13.35;;;;;;;;;;5097146;28;20488;-55
2024/01/14 04:02:21;;;;;;;22.92;14.07;;;;;;;;;;5113786;28;20394;-56
2024/01/14 04:04:48;;;;;;;26.02;16.08;;;;;;;;;;5113849;28;20078;-55
2024/01/14 04:07:16;;;;;;;22.70;13.60;;;;;;;;;;5113347;28;20052;-56
2024/01/14 04:09:43;;;;;;;22.13;14.75;;;;;;;;;;5114001;28;20062;-56
2024/01/14 04:12:10;;;;;;;22.98;13.77;;;;;;;;;;5113168;28;20385;-56
2024/01/14 04:14:36;;;;;;;21.10;13.93;;;;;;;;;;5113648;28;20051;-56
2024/01/14 04:17:04;;;;;;;22.85;14.45;;;;;;;;;;5113535;28;20055;-56
2024/01/14 04:19:31;;;;;;;24.30;13.70;;;;;;;;;;5112608;28;20508;-56
2024/01/14 04:21:57;;;;;;;22.67;14.77;;;;;;;;;;5113371;28;20070;-56
2024/01/14 04:24:26;;;;;;;22.83;14.73;;;;;;;;;;5113475;28;20381;-56
2024/01/14 04:26:52;;;;;;;22.33;15.05;;;;;;;;;;5112902;28;20067;-57
2024/01/14 04:29:19;;;;;;;24.88;14.90;;;;;;;;;;5113248;28;20062;-56
2024/01/14 04:31:46;;;;;;;22.65;14.15;;;;;;;;;;5113287;28;20055;-56
2024/01/14 04:34:13;;;;;;;23.05;14.32;;;;;;;;;;5113356;28;20412;-56
2024/01/14 04:36:39;;;;;;;22.30;14.45;;;;;;;;;;5112960;28;20412;-56
2024/01/14 04:39:07;;;;;;;21.15;13.32;;;;;;;;;;5113031;28;20055;-55
2024/01/14 04:41:35;;;;;;;23.20;14.25;;;;;;;;;;5112906;28;20051;-54
2024/01/14 04:44:03;;;;;;;19.25;12.88;;;;;;;;;;5113099;28;20493;-55
2024/01/14 04:46:29;;;;;;;22.42;12.95;;;;;;;;;;5112939;28;20504;-56
2024/01/14 04:48:56;;;;;;;19.50;12.77;;;;;;;;;;5112961;28;20066;-56
2024/01/14 04:51:23;;;;;;;20.20;12.90;;;;;;;;;;5113017;28;20061;-56
2024/01/14 04:53:50;;;;;;;20.30;12.88;;;;;;;;;;5112725;28;20051;-55
2024/01/14 04:56:16;;;;;;;19.77;12.50;;;;;;;;;;5112766;28;20058;-56
2024/01/14 04:58:45;;;;;;;21.30;13.73;;;;;;;;;;5096466;28;20056;-55
2024/01/14 05:01:12;;;;;;;21.20;13.38;;;;;;;;;;5096836;28;20058;-55
2024/01/14 05:03:39;;;;;;;20.25;12.82;;;;;;;;;;5112993;28;20054;-56
2024/01/14 05:06:06;;;;;;;20.25;13.68;;;;;;;;;;5112568;28;20047;-56
2024/01/14 05:08:32;;;;;;;22.75;13.52;;;;;;;;;;5113149;28;20066;-57
2024/01/14 05:10:59;;;;;;;19.85;12.93;;;;;;;;;;5112442;28;20417;-56
2024/01/14 05:13:26;;;;;;;20.55;13.77;;;;;;;;;;5112674;28;20047;-56
2024/01/14 05:15:54;;;;;;;21.90;14.23;;;;;;;;;;5112874;28;20060;-53
2024/01/14 05:18:21;;;;;;;23.70;14.90;;;;;;;;;;5112821;28;20051;-57
2024/01/14 05:20:48;;;;;;;23.42;14.32;;;;;;;;;;5112464;28;20048;-55
2024/01/14 05:23:14;;;;;;;22.98;15.38;;;;;;;;;;5112607;28;20059;-57
2024/01/14 05:25:42;;;;;;;23.52;14.90;;;;;;;;;;5112722;28;20055;-56
2024/01/14 05:28:08;;;;;;;26.23;16.40;;;;;;;;;;5112252;28;20058;-56
2024/01/14 05:30:35;;;;;;;27.60;16.42;;;;;;;;;;5114011;28;20417;-56
2024/01/14 05:33:04;;;;;;;28.05;17.20;;;;;;;;;;5116973;28;20051;-56
2024/01/14 05:35:31;;;;;;;29.98;17.20;;;;;;;;;;5116575;28;20404;-56
2024/01/14 05:37:58;;;;;;;31.77;18.52;;;;;;;;;;5116479;28;20055;-56
2024/01/14 05:40:24;;;;;;;31.45;19.60;;;;;;;;;;5116344;28;20055;-56
2024/01/14 05:42:51;;;;;;;34.58;20.55;;;;;;;;;;5116381;28;20452;-56
2024/01/14 05:45:18;;;;;;;37.03;21.50;;;;;;;;;;5116562;28;20051;-56
2024/01/14 05:47:45;;;;;;;36.03;20.25;;;;;;;;;;5116172;28;20063;-55
2024/01/14 05:50:13;;;;;;;39.30;22.58;;;;;;;;;;5116050;28;20063;-56
2024/01/14 05:52:40;;;;;;;35.72;20.27;;;;;;;;;;5116158;28;20051;-56
2024/01/14 05:55:08;;;;;;;39.33;21.63;;;;;;;;;;5116569;28;20052;-56
2024/01/14 05:57:34;;;;;;;38.08;22.58;;;;;;;;;;5116073;28;20062;-54
2024/01/14 06:00:02;;;;;;;37.22;22.05;;;;;;;;;;5116194;28;20051;-56
2024/01/14 06:02:28;;;;;;;39.33;22.88;;;;;;;;;;5115680;28;20048;-55
2024/01/14 06:04:55;;;;;;;41.50;24.15;;;;;;;;;;5115968;28;20058;-57
2024/01/14 06:07:23;;;;;;;39.55;22.48;;;;;;;;;;5116091;28;20051;-56
2024/01/14 06:09:50;;;;;;;36.83;22.08;;;;;;;;;;5116331;28;20420;-55
2024/01/14 06:12:17;;;;;;;40.22;22.00;;;;;;;;;;5115445;28;20409;-56
2024/01/14 06:14:44;;;;;;;38.10;21.20;;;;;;;;;;5115796;28;20066;-56
2024/01/14 06:17:10;;;;;;;38.53;22.80;;;;;;;;;;5115355;28;20051;-55
2024/01/14 06:19:37;;;;;;;37.50;21.98;;;;;;;;;;5115546;28;20062;-56
2024/01/14 06:22:07;;;;;;;43.42;22.42;;;;;;;;;;5115617;28;20052;-56
2024/01/14 06:24:35;;;;;;;42.25;23.15;;;;;;;;;;5115491;28;20063;-56
2024/01/14 06:27:02;;;;;;;43.42;23.77;;;;;;;;;;5115577;28;20058;-56
2024/01/14 06:29:29;;;;;;;44.05;24.92;;;;;;;;;;5114426;28;20054;-56
2024/01/14 06:31:58;;;;;;;42.83;23.67;;;;;;;;;;5115288;28;20052;-57
2024/01/14 06:34:24;;;;;;;44.00;25.58;;;;;;;;;;5115367;28;20508;-57
2024/01/14 06:36:51;;;;;;;43.80;24.48;;;;;;;;;;5115344;28;20056;-57
2024/01/14 06:39:20;;;;;;;44.17;24.25;;;;;;;;;;5115339;28;20058;-57
2024/01/14 06:41:48;;;;;;;41.58;23.50;;;;;;;;;;5114354;28;20055;-57
2024/01/14 06:44:15;;;;;;;43.65;24.17;;;;;;;;;;5115116;28;20492;-56
2024/01/14 06:46:42;;;;;;;47.50;25.88;;;;;;;;;;5114952;28;20074;-56
2024/01/14 06:49:09;;;;;;;46.08;25.73;;;;;;;;;;5115294;28;20056;-57
2024/01/14 06:51:42;;;;;;;44.85;24.77;;;;;;;;;;5115028;28;20051;-55
2024/01/14 06:54:08;;;;;;;46.28;26.08;;;;;;;;;;5115016;28;20052;-56
2024/01/14 06:56:42;;;;;;;40.63;23.88;;;;;;;;;;5115045;28;20048;-55
2024/01/14 06:59:14;;;;;;;44.10;24.17;;;;;;;;;;5115106;28;20051;-57
2024/01/14 07:01:41;;;;;;;;;;;;;;;;;;5114915;28;20056;-55
2024/01/14 07:04:08;;;;;;;42.17;23.58;;;;;;;;;;5114788;28;19926;-56
2024/01/14 07:06:34;;;;;;;40.65;23.38;;;;;;;;;;5114362;28;20055;-56
2024/01/14 07:09:01;;;;;;;39.63;22.05;;;;;;;;;;5114478;28;20044;-56
2024/01/14 07:11:28;;;;;;;39.55;22.73;;;;;;;;;;5114870;28;20504;-56
2024/01/14 07:13:55;;;;;;;41.03;21.88;;;;;;;;;;5114972;28;20052;-56
2024/01/14 07:16:23;;;;;;;37.78;21.65;;;;;;;;;;5114763;28;20062;-55
2024/01/14 07:18:50;;;;;;;38.47;23.42;;;;;;;;;;5114555;28;20055;-55
2024/01/14 07:21:20;;;;;;;36.00;21.83;;;;;;;;;;5114635;28;20416;-56
2024/01/14 07:23:47;;;;;;;38.13;22.30;;;;;;;;;;5114509;28;20055;-55
2024/01/14 07:26:15;;;;;;;36.97;21.70;;;;;;;;;;5114561;28;20063;-55
2024/01/14 07:28:42;;;;;;;35.13;20.55;;;;;;;;;;5114414;28;20063;-56
2024/01/14 07:31:09;;;;;;;32.63;20.23;;;;;;;;;;5114060;28;20055;-56
2024/01/14 07:33:38;;;;;;;36.65;21.83;;;;;;;;;;5114231;28;20055;-55
2024/01/14 07:36:05;;;;;;;33.22;20.35;;;;;;;;;;5114237;28;20055;-56
2024/01/14 07:38:31;;;;;;;33.00;19.85;;;;;;;;;;5114421;28;20051;-55
2024/01/14 07:40:58;;;;;;;33.80;20.00;;;;;;;;;;5114354;28;20067;-56
2024/01/14 07:43:25;;;;;;;37.85;21.10;;;;;;;;;;5114244;28;20063;-57
2024/01/14 07:45:52;;;;;;;30.50;18.70;;;;;;;;;;5113995;28;20047;-55
2024/01/14 07:48:19;;;;;;;32.92;19.58;;;;;;;;;;5114059;28;20473;-55
2024/01/14 07:50:47;;;;;;;36.22;21.30;;;;;;;;;;5114088;28;20062;-56
2024/01/14 07:53:16;;;;;;;42.05;22.40;;;;;;;;;;5113344;28;20056;-55
2024/01/14 07:55:43;;;;;;;38.40;22.73;;;;;;;;;;5114307;28;20052;-56
2024/01/14 07:58:11;;;;;;;44.90;23.60;;;;;;;;;;5113784;28;20059;-56
2024/01/14 08:00:38;;;;;;;42.15;23.67;;;;;;;;;;5113851;28;20488;-56
2024/01/14 08:03:05;;;;;;;47.22;24.92;;;;;;;;;;5113892;28;20063;-56
2024/01/14 08:05:32;;;;;;;47.60;25.20;;;;;;;;;;5114137;28;20074;-56
2024/01/14 08:08:00;;;;;;;46.88;25.50;;;;;;;;;;5113837;28;20485;-55
2024/01/14 08:10:27;;;;;;;43.10;24.95;;;;;;;;;;5113810;28;20047;-56
2024/01/14 08:12:53;;;;;;;47.97;26.63;;;;;;;;;;5113915;28;20075;-55
2024/01/14 08:15:20;;;;;;;49.28;25.88;;;;;;;;;;5113862;28;20488;-56
2024/01/14 08:17:47;;;;;;;46.53;25.25;;;;;;;;;;5113469;28;20047;-57
2024/01/14 08:20:14;;;;;;;53.75;28.65;;;;;;;;;;5113750;28;20404;-56
2024/01/14 08:22:41;;;;;;;50.53;27.27;;;;;;;;;;5113696;28;20054;-55
2024/01/14 08:25:10;;;;;;;45.95;24.40;;;;;;;;;;5113648;28;20481;-57
2024/01/14 08:27:38;;;;;;;49.72;25.85;;;;;;;;;;5113342;28;20118;-56
2024/01/14 08:30:06;;;;;;;46.42;24.70;;;;;;;;;;5113516;28;20060;-56
2024/01/14 08:32:33;;;;;;;53.03;27.85;;;;;;;;;;5113241;28;20514;-57
2024/01/14 08:35:00;;;;;;;42.80;24.75;;;;;;;;;;5113647;28;20408;-57
2024/01/14 08:37:28;;;;;;;47.10;25.25;;;;;;;;;;5113114;28;20059;-56
2024/01/14 08:39:55;;;;;;;43.17;22.83;;;;;;;;;;5113401;28;20062;-56
2024/01/14 08:42:23;;;;;;;43.22;22.98;;;;;;;;;;5112840;28;20503;-55
2024/01/14 08:44:50;;;;;;;45.28;24.50;;;;;;;;;;5113133;28;20114;-56
2024/01/14 08:47:17;;;;;;;46.63;24.85;;;;;;;;;;5111915;28;20051;-56
2024/01/14 08:49:44;;;;;;;47.97;25.02;;;;;;;;;;5113131;28;20058;-56
2024/01/14 08:52:11;;;;;;;46.20;24.13;;;;;;;;;;5113171;28;20050;-56
2024/01/14 08:54:38;;;;;;;49.38;26.80;;;;;;;;;;5113046;28;20063;-56
2024/01/14 08:57:05;;;;;;;49.42;25.77;;;;;;;;;;5113135;28;20066;-56
2024/01/14 08:59:35;;;;;;;40.95;23.35;;;;;;;;;;5096232;28;20393;-54
2024/01/14 09:02:02;;;;;;;47.92;24.48;;;;;;;;;;5112594;28;20051;-56
2024/01/14 09:04:29;;;;;;;43.80;23.63;;;;;;;;;;5112797;28;20477;-57
2024/01/14 09:06:56;;;;;;;45.78;24.17;;;;;;;;;;5112708;28;20051;-56
2024/01/14 09:09:23;;;;;;;42.20;23.02;;;;;;;;;;5112945;28;20056;-56
2024/01/14 09:11:50;;;;;;;39.63;22.17;;;;;;;;;;5112777;28;20051;-55
2024/01/14 09:14:16;;;;;;;37.95;22.02;;;;;;;;;;5112630;28;20048;-56
2024/01/14 09:16:45;;;;;;;39.83;21.67;;;;;;;;;;5112456;28;20051;-56
2024/01/14 09:19:12;;;;;;;36.08;19.63;;;;;;;;;;5112621;28;20056;-55
2024/01/14 09:21:39;;;;;;;35.67;18.92;;;;;;;;;;5112710;28;20390;-56
2024/01/14 09:24:06;;;;;;;35.30;19.17;;;;;;;;;;5112657;28;20421;-56
2024/01/14 09:26:33;;;;;;;32.92;18.45;;;;;;;;;;5112529;28;20047;-56
2024/01/14 09:28:59;;;;;;;32.20;18.75;;;;;;;;;;5112428;28;20043;-56
2024/01/14 09:31:27;;;;;;;34.63;19.35;;;;;;;;;;5112190;28;20063;-57
2024/01/14 09:33:55;;;;;;;27.90;16.60;;;;;;;;;;5112857;28;20075;-55
2024/01/14 09:36:22;;;;;;;29.55;17.60;;;;;;;;;;5112391;28;20048;-55
2024/01/14 09:38:49;;;;;;;30.95;17.48;;;;;;;;;;5112447;28;20056;-56
2024/01/14 09:41:23;;;;;;;29.40;16.80;;;;;;;;;;5112372;28;20048;-55
2024/01/14 09:43:51;;;;;;;29.63;17.42;;;;;;;;;;5112548;28;20047;-55
2024/01/14 09:46:18;;;;;;;26.73;15.40;;;;;;;;;;5112718;28;20055;-55
2024/01/14 09:48:46;;;;;;;27.73;17.33;;;;;;;;;;5112674;28;20052;-57
2024/01/14 09:51:15;;;;;;;34.78;17.70;;;;;;;;;;5112441;28;20055;-57
2024/01/14 09:53:42;;;;;;;31.35;18.10;;;;;;;;;;5112218;28;20047;-56
2024/01/14 09:56:13;;;;;;;33.30;18.83;;;;;;;;;;5112251;28;20056;-57
2024/01/14 09:58:40;;;;;;;28.73;17.05;;;;;;;;;;5096911;28;20057;-56
2024/01/14 10:01:09;;;;;;;29.95;17.23;;;;;;;;;;5111783;28;20485;-57
2024/01/14 10:03:36;;;;;;;33.93;18.57;;;;;;;;;;5112411;28;20051;-56
2024/01/14 10:06:03;;;;;;;34.72;17.92;;;;;;;;;;5112246;28;20485;-57
2024/01/14 10:08:31;;;;;;;32.05;17.83;;;;;;;;;;5112120;28;20059;-56
2024/01/14 10:11:02;;;;;;;30.25;17.63;;;;;;;;;;5111959;28;20063;-57
2024/01/14 10:13:31;;;;;;;30.98;16.80;;;;;;;;;;5112197;28;20055;-56
2024/01/14 10:15:58;;;;;;;30.23;17.40;;;;;;;;;;5112456;28;20063;-56
2024/01/14 10:18:25;;;;;;;30.77;17.08;;;;;;;;;;5114539;28;20096;-56
2024/01/14 10:20:52;;;;;;;31.45;17.80;;;;;;;;;;5115459;28;20052;-55
2024/01/14 10:23:22;;;;;;;33.83;18.05;;;;;;;;;;5115637;28;20056;-56
2024/01/14 10:25:50;;;;;;;32.40;17.92;;;;;;;;;;5115485;28;20043;-54
2024/01/14 10:28:17;;;;;;;31.42;17.02;;;;;;;;;;5115618;28;20087;-55
2024/01/14 10:30:44;;;;;;;33.15;17.30;;;;;;;;;;5115394;28;20052;-56
2024/01/14 10:33:11;;;;;;;27.20;17.02;;;;;;;;;;5115327;28;20382;-55
2024/01/14 10:35:38;;;;;;;28.35;15.95;;;;;;;;;;5115574;28;20043;-55
2024/01/14 10:38:05;;;;;;;27.13;15.00;;;;;;;;;;5115329;28;20059;-55
2024/01/14 10:40:32;;;;;;;29.73;16.38;;;;;;;;;;5115330;28;20151;-56
2024/01/14 10:43:02;;;;;;;28.80;15.48;;;;;;;;;;5115201;28;20048;-55
2024/01/14 10:45:28;;;;;;;26.05;15.23;;;;;;;;;;5115226;28;20043;-57
2024/01/14 10:47:56;;;;;;;30.42;15.65;;;;;;;;;;5115208;28;20063;-55
2024/01/14 10:50:24;;;;;;;26.58;15.57;;;;;;;;;;5114853;28;20417;-55
2024/01/14 10:52:54;;;;;;;27.45;15.13;;;;;;;;;;5115093;28;20488;-54
2024/01/14 10:55:20;;;;;;;;;;;;;;;;;;5115546;28;20421;-57
2024/01/14 10:57:47;;;;;;;21.95;13.60;;;;;;;;;;5114155;28;19924;-55
2024/01/14 11:00:16;;;;;;;21.73;13.02;;;;;;;;;;5099825;28;20051;-57
2024/01/14 11:02:44;;;;;;;25.05;15.27;;;;;;;;;;5115062;28;20489;-56
2024/01/14 11:05:12;;;;;;;24.25;13.77;;;;;;;;;;5114644;28;20043;-57
2024/01/14 11:07:39;;;;;;;23.30;13.13;;;;;;;;;;5114942;28;20058;-56
2024/01/14 11:10:07;;;;;;;21.92;12.77;;;;;;;;;;5115187;28;20060;-57
2024/01/14 11:12:37;;;;;;;25.25;14.45;;;;;;;;;;5114655;28;20060;-56
2024/01/14 11:15:07;;;;;;;23.65;14.18;;;;;;;;;;5114326;28;20493;-56
2024/01/14 11:17:51;;;;;;;23.13;14.23;;;;;;;;;;5114552;28;20066;-57
2024/01/14 11:20:19;;;;;;;24.75;14.00;;;;;;;;;;5114843;28;20056;-55
2024/01/14 11:22:45;;;;;;;20.55;13.07;;;;;;;;;;5114193;28;20052;-57
2024/01/14 11:25:14;;;;;;;21.85;13.35;;;;;;;;;;5114629;28;20051;-57
2024/01/14 11:27:41;;;;;;;24.33;13.70;;;;;;;;;;5114428;28;20063;-57
2024/01/14 11:30:09;;;;;;;23.95;13.98;;;;;;;;;;5113909;28;20412;-56
2024/01/14 11:32:36;;;;;;;23.20;14.40;;;;;;;;;;5114321;28;20407;-55
2024/01/14 11:35:05;;;;;;;21.38;13.23;;;;;;;;;;5114524;28;20052;-57
2024/01/14 11:37:39;;;;;;;20.02;12.18;;;;;;;;;;5113884;28;20056;-57
2024/01/14 11:40:16;;;;;;;19.08;11.85;;;;;;;;;;5114457;28;20048;-56
2024/01/14 11:42:49;;;;;;;17.45;11.23;;;;;;;;;;5114205;28;20381;-56
2024/01/14 11:45:31;;;;;;;18.60;11.20;;;;;;;;;;5114168;28;20063;-56
2024/01/14 11:47:58;;;;;;;17.67;10.23;;;;;;;;;;5114021;28;20055;-55
2024/01/14 11:50:26;;;;;;;16.40;10.63;;;;;;;;;;5113785;28;20047;-57
2024/01/14 11:52:54;;;;;;;16.05;10.13;;;;;;;;;;5113431;28;20043;-56
2024/01/14 11:55:24;;;;;;;15.00;9.45;;;;;;;;;;5113944;28;20062;-57
2024/01/14 11:57:52;;;;;;;13.68;8.43;;;;;;;;;;5112018;28;20082;-57
2024/01/14 12:00:22;;;;;;;12.23;7.65;;;;;;;;;;5099917;28;20147;-57
2024/01/14 12:03:02;;;;;;;13.80;8.43;;;;;;;;;;5113929;28;20048;-55
2024/01/14 12:05:29;;;;;;;;;;;;;;;;;;5114444;28;20369;-56
2024/01/14 12:07:58;;;;;;;12.93;8.23;;;;;;;;;;5113436;28;19919;-56
2024/01/14 12:10:24;;;;;;;13.43;8.07;;;;;;;;;;5114041;28;20495;-55
2024/01/14 12:12:51;;;;;;;11.50;7.75;;;;;;;;;;5113416;28;20051;-56
2024/01/14 12:15:18;;;;;;;11.82;8.40;;;;;;;;;;5113772;28;20055;-57
2024/01/14 12:17:53;;;;;;;11.10;6.25;;;;;;;;;;5113667;28;20051;-58
2024/01/14 12:20:21;;;;;;;11.73;7.72;;;;;;;;;;5113565;28;20048;-56
2024/01/14 12:22:48;;;;;;;12.02;7.65;;;;;;;;;;5113179;28;20047;-55
2024/01/14 12:25:16;;;;;;;10.85;7.57;;;;;;;;;;5113437;28;20408;-56
2024/01/14 12:27:43;;;;;;;12.55;7.20;;;;;;;;;;5113139;28;20063;-56
2024/01/14 12:30:10;;;;;;;10.55;7.57;;;;;;;;;;5113141;28;20051;-57
2024/01/14 12:32:37;;;;;;;10.35;6.95;;;;;;;;;;5113482;28;20476;-56
2024/01/14 12:35:04;;;;;;;11.00;6.85;;;;;;;;;;5113597;28;20047;-56
2024/01/14 12:37:31;;;;;;;9.75;7.00;;;;;;;;;;5113467;28;20051;-57
2024/01/14 12:40:00;;;;;;;9.55;7.15;;;;;;;;;;5112716;28;20059;-56
2024/01/14 12:42:28;;;;;;;12.35;8.18;;;;;;;;;;5113151;28;20409;-57
2024/01/14 12:44:55;;;;;;;12.88;8.45;;;;;;;;;;5113215;28;20055;-55
2024/01/14 12:47:22;;;;;;;13.30;9.23;;;;;;;;;;5112951;28;20420;-56
2024/01/14 12:49:49;;;;;;;14.63;8.30;;;;;;;;;;5112691;28;20052;-56
2024/01/14 12:52:16;;;;;;;15.50;9.65;;;;;;;;;;5113180;28;20055;-57
2024/01/14 12:54:47;;;;;;;16.50;10.10;;;;;;;;;;5113078;28;20054;-55
2024/01/14 12:57:14;;;;;;;20.63;13.18;;;;;;;;;;5112717;28;20044;-56
2024/01/14 12:59:42;;;;;;;20.48;12.23;;;;;;;;;;5096171;28;20047;-57
2024/01/14 13:02:09;;;;;;;22.52;14.90;;;;;;;;;;5112739;28;20052;-55
2024/01/14 13:04:36;;;;;;;29.20;17.90;;;;;;;;;;5113052;28;20059;-57
2024/01/14 13:07:03;;;;;;;26.63;15.43;;;;;;;;;;5112671;28;20044;-56
2024/01/14 13:09:30;;;;;;;21.10;13.20;;;;;;;;;;5113020;28;20059;-56
2024/01/14 13:11:57;;;;;;;20.25;12.48;;;;;;;;;;5112720;28;20062;-56
2024/01/14 13:14:28;;;;;;;20.40;12.10;;;;;;;;;;5112990;28;20056;-56
2024/01/14 13:16:56;;;;;;;22.58;12.90;;;;;;;;;;5112962;28;20484;-55
2024/01/14 13:19:23;;;;;;;20.92;12.68;;;;;;;;;;5112562;28;20048;-56
2024/01/14 13:21:50;;;;;;;22.45;13.52;;;;;;;;;;5112422;28;20115;-56
2024/01/14 13:24:17;;;;;;;22.98;13.70;;;;;;;;;;5112610;28;20051;-57
2024/01/14 13:26:44;;;;;;;20.15;12.73;;;;;;;;;;5112348;28;20489;-55
2024/01/14 13:29:10;;;;;;;23.92;15.13;;;;;;;;;;5112119;28;20055;-56
2024/01/14 13:31:38;;;;;;;21.00;12.68;;;;;;;;;;5112544;28;20062;-54
2024/01/14 13:34:07;;;;;;;22.52;13.40;;;;;;;;;;5112918;28;20083;-55
2024/01/14 13:36:33;;;;;;;22.65;14.43;;;;;;;;;;5112558;28;20048;-56
2024/01/14 13:39:01;;;;;;;24.58;15.02;;;;;;;;;;5112521;28;20058;-54
2024/01/14 13:41:28;;;;;;;18.33;11.60;;;;;;;;;;5112242;28;20052;-55
2024/01/14 13:43:55;;;;;;;21.35;13.65;;;;;;;;;;5112512;28;20051;-55
2024/01/14 13:46:21;;;;;;;20.40;14.50;;;;;;;;;;5112246;28;20047;-56
2024/01/14 13:48:48;;;;;;;18.58;12.63;;;;;;;;;;5112345;28;20063;-56
2024/01/14 13:51:19;;;;;;;22.38;14.77;;;;;;;;;;5112491;28;20047;-56
2024/01/14 13:53:46;;;;;;;23.20;15.38;;;;;;;;;;5116304;28;20052;-56
2024/01/14 13:56:13;;;;;;;22.27;13.40;;;;;;;;;;5116112;28;20051;-57
2024/01/14 13:58:40;;;;;;;21.38;13.15;;;;;;;;;;5100582;28;20394;-56
2024/01/14 14:01:07;;;;;;;20.77;13.25;;;;;;;;;;5114978;28;20048;-55
2024/01/14 14:03:34;;;;;;;20.13;12.43;;;;;;;;;;5116105;28;20051;-56
2024/01/14 14:06:00;;;;;;;21.83;12.57;;;;;;;;;;5115674;28;20054;-56
2024/01/14 14:08:29;;;;;;;20.20;11.98;;;;;;;;;;5115726;28;20055;-56
2024/01/14 14:10:55;;;;;;;20.48;14.65;;;;;;;;;;5115525;28;20047;-56
2024/01/14 14:13:22;;;;;;;20.55;13.10;;;;;;;;;;5115640;28;20052;-56
2024/01/14 14:15:49;;;;;;;19.42;11.93;;;;;;;;;;5115563;28;20047;-57
2024/01/14 14:18:16;;;;;;;20.13;13.15;;;;;;;;;;5115502;28;20043;-56
2024/01/14 14:20:43;;;;;;;18.63;13.48;;;;;;;;;;5115581;28;20416;-56